Time,TemperatureF,DewpointF,PressureIn,WindDirection,WindDirectionDegrees,WindSpeedMPH,WindSpeedGustMPH,Humidity,HourlyPrecipIn,Conditions,Clouds,dailyrainin,SoftwareType,DateUTC
2013-01-01 00:02:00,35.3,31.2,30.32,SSE,149,1.0,2.0,85,0.00,,,0.00,VWS V14.01,2013-01-01 08:02:00,
2013-01-01 00:07:00,35.6,31.5,30.31,SE,131,0.0,2.0,85,0.00,,,0.00,VWS V14.01,2013-01-01 08:07:00,
2013-01-01 00:12:00,35.8,31.7,30.31,ESE,105,0.0,2.0,85,0.00,,,0.00,VWS V14.01,2013-01-01 08:12:00,
2013-01-01 00:17:00,36.0,31.6,30.31,ESE,108,0.0,2.0,84,0.00,,,0.00,VWS V14.01,2013-01-01 08:17:00,
2013-01-01 00:22:00,36.0,31.6,30.31,ESE,108,0.0,2.0,84,0.00,,,0.00,VWS V14.01,2013-01-01 08:22:00,
2013-01-01 00:27:00,35.8,31.5,30.31,ESE,109,0.0,2.0,84,0.00,,,0.00,VWS V14.01,2013-01-01 08:27:00,
2013-01-01 00:32:00,35.5,31.1,30.32,ESE,108,0.0,0.0,84,0.00,,,0.00,VWS V14.01,2013-01-01 08:32:00,
2013-01-01 00:37:00,35.3,31.0,30.32,SW,222,0.0,1.0,84,0.00,,,0.00,VWS V14.01,2013-01-01 08:37:00,
2013-01-01 00:42:00,35.1,31.0,30.33,NNW,327,0.0,1.0,85,0.00,,,0.00,VWS V14.01,2013-01-01 08:42:00,
2013-01-01 00:47:00,34.9,30.9,30.34,West,280,0.0,1.0,85,0.00,,,0.00,VWS V14.01,2013-01-01 08:47:00,
2013-01-01 00:52:00,34.7,31.0,30.34,West,280,0.0,1.0,86,0.00,,,0.00,VWS V14.01,2013-01-01 08:52:00,
2013-01-01 00:57:00,34.4,30.9,30.34,West,280,0.0,1.0,87,0.00,,,0.00,VWS V14.01,2013-01-01 08:57:00,
2013-01-01 01:02:00,34.3,30.8,30.34,West,280,0.0,0.0,87,0.00,,,0.00,VWS V14.01,2013-01-01 09:02:00,
2013-01-01 01:07:00,34.1,30.9,30.34,West,280,0.0,0.0,88,0.00,,,0.00,VWS V14.01,2013-01-01 09:07:00,
2013-01-01 01:12:00,33.9,30.7,30.34,West,280,0.0,0.0,88,0.00,,,0.00,VWS V14.01,2013-01-01 09:12:00,
2013-01-01 01:17:00,33.7,30.5,30.34,West,280,0.0,0.0,88,0.00,,,0.00,VWS V14.01,2013-01-01 09:17:00,
2013-01-01 01:22:00,33.6,30.4,30.35,West,280,0.0,0.0,88,0.00,,,0.00,VWS V14.01,2013-01-01 09:22:00,
2013-01-01 01:27:00,33.4,30.5,30.34,West,280,0.0,0.0,89,0.00,,,0.00,VWS V14.01,2013-01-01 09:27:00,
2013-01-01 01:32:00,33.1,29.9,30.34,West,280,0.0,0.0,88,0.00,,,0.00,VWS V14.01,2013-01-01 09:32:00,
2013-01-01 01:37:00,32.7,29.8,30.33,West,280,0.0,0.0,89,0.00,,,0.00,VWS V14.01,2013-01-01 09:37:00,
2013-01-01 01:42:00,32.5,29.9,30.33,West,280,0.0,0.0,90,0.00,,,0.00,VWS V14.01,2013-01-01 09:42:00,
2013-01-01 01:47:00,32.5,29.9,30.33,West,280,0.0,0.0,90,0.00,,,0.00,VWS V14.01,2013-01-01 09:47:00,
2013-01-01 01:52:00,32.4,29.8,30.33,West,280,0.0,0.0,90,0.00,,,0.00,VWS V14.01,2013-01-01 09:52:00,
2013-01-01 01:57:00,32.2,29.6,30.33,West,280,0.0,0.0,90,0.00,,,0.00,VWS V14.01,2013-01-01 09:57:00,
2013-01-01 02:02:00,32.1,29.8,30.32,NE,39,0.0,1.0,91,0.00,,,0.00,VWS V14.01,2013-01-01 10:02:00,
2013-01-01 02:07:00,32.1,29.8,30.33,NE,39,0.0,1.0,91,0.00,,,0.00,VWS V14.01,2013-01-01 10:07:00,
2013-01-01 02:12:00,32.1,29.8,30.33,NE,39,0.0,1.0,91,0.00,,,0.00,VWS V14.01,2013-01-01 10:12:00,
2013-01-01 02:17:00,32.3,30.2,30.33,NE,39,0.0,1.0,92,0.00,,,0.00,VWS V14.01,2013-01-01 10:17:00,
2013-01-01 02:22:00,32.5,30.4,30.34,NE,39,0.0,1.0,92,0.00,,,0.00,VWS V14.01,2013-01-01 10:22:00,
2013-01-01 02:27:00,32.5,30.4,30.34,NE,39,0.0,1.0,92,0.00,,,0.00,VWS V14.01,2013-01-01 10:27:00,
2013-01-01 02:32:00,32.5,30.4,30.34,NE,39,0.0,0.0,92,0.00,,,0.00,VWS V14.01,2013-01-01 10:32:00,
2013-01-01 02:37:00,32.3,30.2,30.34,NE,39,0.0,0.0,92,0.00,,,0.00,VWS V14.01,2013-01-01 10:37:00,
2013-01-01 02:42:00,32.1,29.8,30.34,NE,39,0.0,0.0,91,0.00,,,0.00,VWS V14.01,2013-01-01 10:42:00,
2013-01-01 02:47:00,32.3,30.2,30.34,NE,39,0.0,0.0,92,0.00,,,0.00,VWS V14.01,2013-01-01 10:47:00,
2013-01-01 02:52:00,32.4,30.3,30.35,NE,39,0.0,0.0,92,0.00,,,0.00,VWS V14.01,2013-01-01 10:52:00,
2013-01-01 02:57:00,32.7,30.9,30.34,NE,39,0.0,0.0,93,0.00,,,0.00,VWS V14.01,2013-01-01 10:57:00,
2013-01-01 03:02:00,32.8,30.7,30.35,NE,39,0.0,0.0,92,0.00,,,0.00,VWS V14.01,2013-01-01 11:02:00,
2013-01-01 03:07:00,32.9,30.8,30.35,NE,39,0.0,0.0,92,0.00,,,0.00,VWS V14.01,2013-01-01 11:07:00,
2013-01-01 03:12:00,33.1,31.3,30.34,NE,39,0.0,0.0,93,0.00,,,0.00,VWS V14.01,2013-01-01 11:12:00,
2013-01-01 03:17:00,33.3,31.5,30.34,NE,39,0.0,0.0,93,0.00,,,0.00,VWS V14.01,2013-01-01 11:17:00,
2013-01-01 03:22:00,33.6,31.8,30.35,NE,39,0.0,0.0,93,0.00,,,0.00,VWS V14.01,2013-01-01 11:22:00,
2013-01-01 03:27:00,34.0,32.2,30.34,NE,39,0.0,0.0,93,0.00,,,0.00,VWS V14.01,2013-01-01 11:27:00,
2013-01-01 03:32:00,34.2,32.4,30.35,NE,39,0.0,0.0,93,0.00,,,0.00,VWS V14.01,2013-01-01 11:32:00,
2013-01-01 03:37:00,34.6,32.8,30.35,WSW,239,0.0,1.0,93,0.00,,,0.00,VWS V14.01,2013-01-01 11:37:00,
2013-01-01 03:42:00,35.1,32.7,30.35,WSW,245,0.0,1.0,91,0.00,,,0.00,VWS V14.01,2013-01-01 11:42:00,
2013-01-01 03:47:00,35.6,33.0,30.36,West,262,0.0,2.0,90,0.00,,,0.00,VWS V14.01,2013-01-01 11:47:00,
2013-01-01 03:52:00,36.7,33.5,30.36,North,352,0.0,4.0,88,0.00,,,0.00,VWS V14.01,2013-01-01 11:52:00,
2013-01-01 03:57:00,37.5,33.4,30.37,SSE,162,0.0,4.0,85,0.00,,,0.00,VWS V14.01,2013-01-01 11:57:00,
2013-01-01 04:02:00,37.8,33.7,30.37,SSE,167,0.0,1.0,85,0.00,,,0.00,VWS V14.01,2013-01-01 12:02:00,
2013-01-01 04:07:00,37.7,33.6,30.37,WSW,240,0.0,2.0,85,0.00,,,0.00,VWS V14.01,2013-01-01 12:07:00,
2013-01-01 04:12:00,37.6,33.5,30.37,WSW,239,0.0,2.0,85,0.00,,,0.00,VWS V14.01,2013-01-01 12:12:00,
2013-01-01 04:17:00,37.6,33.8,30.37,SSE,168,0.0,2.0,86,0.00,,,0.00,VWS V14.01,2013-01-01 12:17:00,
2013-01-01 04:22:00,37.6,33.8,30.36,SSE,167,0.0,2.0,86,0.00,,,0.00,VWS V14.01,2013-01-01 12:22:00,
2013-01-01 04:27:00,37.7,33.6,30.37,SSE,167,0.0,2.0,85,0.00,,,0.00,VWS V14.01,2013-01-01 12:27:00,
2013-01-01 04:32:00,37.8,33.4,30.36,SW,221,0.0,1.0,84,0.00,,,0.00,VWS V14.01,2013-01-01 12:32:00,
2013-01-01 04:37:00,38.3,33.0,30.36,East,85,0.0,2.0,81,0.00,,,0.00,VWS V14.01,2013-01-01 12:37:00,
2013-01-01 04:42:00,38.6,33.3,30.36,NNW,340,0.0,2.0,81,0.00,,,0.00,VWS V14.01,2013-01-01 12:42:00,
2013-01-01 04:47:00,38.9,33.0,30.36,ESE,123,0.0,2.0,79,0.00,,,0.00,VWS V14.01,2013-01-01 12:47:00,
2013-01-01 04:52:00,39.8,32.9,30.36,ESE,108,0.0,5.0,76,0.00,,,0.00,VWS V14.01,2013-01-01 12:52:00,
2013-01-01 04:57:00,40.4,33.1,30.36,East,98,0.0,5.0,75,0.00,,,0.00,VWS V14.01,2013-01-01 12:57:00,
2013-01-01 05:02:00,40.6,33.6,30.36,ENE,78,1.0,5.0,76,0.00,,,0.00,VWS V14.01,2013-01-01 13:02:00,
2013-01-01 05:07:00,40.9,33.6,30.35,SE,129,0.0,7.0,75,0.00,,,0.00,VWS V14.01,2013-01-01 13:07:00,
2013-01-01 05:12:00,40.9,34.3,30.35,SSE,152,0.0,7.0,77,0.00,,,0.00,VWS V14.01,2013-01-01 13:12:00,
2013-01-01 05:17:00,40.8,34.5,30.35,NE,40,0.0,7.0,78,0.00,,,0.00,VWS V14.01,2013-01-01 13:17:00,
2013-01-01 05:22:00,40.7,34.4,30.35,ENE,70,0.0,7.0,78,0.00,,,0.00,VWS V14.01,2013-01-01 13:22:00,
2013-01-01 05:27:00,40.6,34.6,30.35,East,100,0.0,7.0,79,0.00,,,0.00,VWS V14.01,2013-01-01 13:27:00,
2013-01-01 05:32:00,40.4,34.4,30.35,East,89,0.0,0.0,79,0.00,,,0.00,VWS V14.01,2013-01-01 13:32:00,
2013-01-01 05:37:00,40.2,34.5,30.35,NNW,330,0.0,1.0,80,0.00,,,0.00,VWS V14.01,2013-01-01 13:37:00,
2013-01-01 05:42:00,40.1,34.4,30.36,NNE,15,0.0,2.0,80,0.00,,,0.00,VWS V14.01,2013-01-01 13:42:00,
2013-01-01 05:47:00,40.1,34.4,30.36,ENE,77,0.0,2.0,80,0.00,,,0.00,VWS V14.01,2013-01-01 13:47:00,
2013-01-01 05:52:00,40.1,34.4,30.36,ENE,77,0.0,2.0,80,0.00,,,0.00,VWS V14.01,2013-01-01 13:52:00,
2013-01-01 05:57:00,40.1,34.8,30.36,NNW,347,0.0,2.0,81,0.00,,,0.00,VWS V14.01,2013-01-01 13:57:00,
2013-01-01 06:02:00,40.2,34.8,30.36,NNW,348,0.0,0.0,81,0.00,,,0.00,VWS V14.01,2013-01-01 14:02:00,
2013-01-01 06:07:00,40.0,34.7,30.36,NNW,348,0.0,0.0,81,0.00,,,0.00,VWS V14.01,2013-01-01 14:07:00,
2013-01-01 06:12:00,39.7,34.7,30.36,NNW,348,0.0,0.0,82,0.00,,,0.00,VWS V14.01,2013-01-01 14:12:00,
2013-01-01 06:17:00,39.4,34.4,30.36,NNW,348,0.0,1.0,82,0.00,,,0.00,VWS V14.01,2013-01-01 14:17:00,
2013-01-01 06:22:00,39.1,34.4,30.36,NNW,348,0.0,1.0,83,0.00,,,0.00,VWS V14.01,2013-01-01 14:22:00,
2013-01-01 06:27:00,38.7,34.3,30.36,NNW,348,0.0,1.0,84,0.00,,,0.00,VWS V14.01,2013-01-01 14:27:00,
2013-01-01 06:32:00,38.3,33.9,30.36,NNW,348,0.0,0.0,84,0.00,,,0.00,VWS V14.01,2013-01-01 14:32:00,
2013-01-01 06:37:00,37.8,33.7,30.37,NW,318,0.0,1.0,85,0.00,,,0.00,VWS V14.01,2013-01-01 14:37:00,
2013-01-01 06:42:00,37.3,33.2,30.37,WSW,246,0.0,1.0,85,0.00,,,0.00,VWS V14.01,2013-01-01 14:42:00,
2013-01-01 06:47:00,36.9,33.1,30.37,WSW,246,0.0,1.0,86,0.00,,,0.00,VWS V14.01,2013-01-01 14:47:00,
2013-01-01 06:52:00,36.6,33.1,30.37,WSW,246,0.0,1.0,87,0.00,,,0.00,VWS V14.01,2013-01-01 14:52:00,
2013-01-01 06:57:00,36.4,33.2,30.36,North,1,0.0,1.0,88,0.00,,,0.00,VWS V14.01,2013-01-01 14:57:00,
2013-01-01 07:02:00,36.9,34.0,30.36,East,90,0.0,1.0,89,0.00,,,0.00,VWS V14.01,2013-01-01 15:02:00,
2013-01-01 07:07:00,37.2,34.3,30.36,NNW,347,0.0,2.0,89,0.00,,,0.00,VWS V14.01,2013-01-01 15:07:00,
2013-01-01 07:12:00,37.3,34.1,30.36,NNW,347,0.0,2.0,88,0.00,,,0.00,VWS V14.01,2013-01-01 15:12:00,
2013-01-01 07:17:00,37.6,34.4,30.36,ENE,75,0.0,2.0,88,0.00,,,0.00,VWS V14.01,2013-01-01 15:17:00,
2013-01-01 07:22:00,37.8,34.0,30.36,SSE,152,0.0,4.0,86,0.00,,,0.00,VWS V14.01,2013-01-01 15:22:00,
2013-01-01 07:27:00,37.9,33.8,30.36,SSE,150,0.0,4.0,85,0.00,,,0.00,VWS V14.01,2013-01-01 15:27:00,
2013-01-01 07:32:00,37.9,33.8,30.36,SW,218,0.0,1.0,85,0.00,,,0.00,VWS V14.01,2013-01-01 15:32:00,
2013-01-01 07:37:00,37.7,33.6,30.36,SSE,167,0.0,4.0,85,0.00,,,0.00,VWS V14.01,2013-01-01 15:37:00,
2013-01-01 07:42:00,37.6,33.5,30.37,SSE,165,0.0,4.0,85,0.00,,,0.00,VWS V14.01,2013-01-01 15:42:00,
2013-01-01 07:47:00,37.5,33.4,30.37,SSE,165,0.0,4.0,85,0.00,,,0.00,VWS V14.01,2013-01-01 15:47:00,
2013-01-01 07:52:00,37.4,33.3,30.37,SSE,160,0.0,4.0,85,0.00,,,0.00,VWS V14.01,2013-01-01 15:52:00,
2013-01-01 07:57:00,37.4,33.3,30.37,SSE,167,0.0,4.0,85,0.00,,,0.00,VWS V14.01,2013-01-01 15:57:00,
2013-01-01 08:02:00,37.3,33.2,30.37,SSE,168,0.0,0.0,85,0.00,,,0.00,VWS V14.01,2013-01-01 16:02:00,
2013-01-01 08:07:00,37.3,33.2,30.37,SSE,167,0.0,0.0,85,0.00,,,0.00,VWS V14.01,2013-01-01 16:07:00,
2013-01-01 08:12:00,37.3,33.2,30.37,SSE,167,0.0,0.0,85,0.00,,,0.00,VWS V14.01,2013-01-01 16:12:00,
2013-01-01 08:17:00,37.4,33.0,30.37,ESE,117,0.0,1.0,84,0.00,,,0.00,VWS V14.01,2013-01-01 16:17:00,
2013-01-01 08:22:00,37.6,33.2,30.38,ESE,117,0.0,1.0,84,0.00,,,0.00,VWS V14.01,2013-01-01 16:22:00,
2013-01-01 08:27:00,37.8,33.4,30.38,SSE,152,0.0,1.0,84,0.00,,,0.00,VWS V14.01,2013-01-01 16:27:00,
2013-01-01 08:32:00,38.2,33.8,30.37,SSE,149,0.0,1.0,84,0.00,,,0.00,VWS V14.01,2013-01-01 16:32:00,
2013-01-01 08:37:00,38.5,33.5,30.37,East,100,1.0,1.0,82,0.00,,,0.00,VWS V14.01,2013-01-01 16:37:00,
2013-01-01 08:42:00,38.9,33.3,30.37,SSE,158,0.0,3.0,80,0.00,,,0.00,VWS V14.01,2013-01-01 16:42:00,
2013-01-01 08:47:00,39.1,33.2,30.38,ESE,106,0.0,3.0,79,0.00,,,0.00,VWS V14.01,2013-01-01 16:47:00,
2013-01-01 08:51:00,39.4,33.1,30.38,SE,129,0.0,3.0,78,0.00,,,0.00,VWS V14.01,2013-01-01 16:51:00,
2013-01-01 08:57:00,39.6,32.7,30.38,SE,129,0.0,4.0,76,0.00,,,0.00,VWS V14.01,2013-01-01 16:57:00,
2013-01-01 09:02:00,39.7,32.1,30.38,ESE,114,0.0,1.0,74,0.00,,,0.00,VWS V14.01,2013-01-01 17:02:00,
2013-01-01 09:06:00,39.7,32.4,30.38,SE,132,0.0,1.0,75,0.00,,,0.00,VWS V14.01,2013-01-01 17:06:00,
2013-01-01 09:11:00,39.9,32.6,30.38,West,263,0.0,1.0,75,0.00,,,0.00,VWS V14.01,2013-01-01 17:11:00,
2013-01-01 09:16:00,40.2,32.2,30.39,SSW,195,2.0,2.0,73,0.00,,,0.00,VWS V14.01,2013-01-01 17:16:00,
2013-01-01 09:21:00,40.8,32.5,30.39,ESE,108,0.0,2.0,72,0.00,,,0.00,VWS V14.01,2013-01-01 17:21:00,
2013-01-01 09:26:00,41.4,32.4,30.39,West,259,0.0,2.0,70,0.00,,,0.00,VWS V14.01,2013-01-01 17:26:00,
2013-01-01 09:31:00,42.0,32.6,30.39,ENE,61,0.0,1.0,69,0.00,,,0.00,VWS V14.01,2013-01-01 17:31:00,
2013-01-01 09:36:00,42.6,32.8,30.39,ESE,120,0.0,1.0,68,0.00,,,0.00,VWS V14.01,2013-01-01 17:36:00,
2013-01-01 09:41:00,43.3,33.1,30.39,ESE,118,1.0,1.0,67,0.00,,,0.00,VWS V14.01,2013-01-01 17:41:00,
2013-01-01 09:46:00,43.6,33.4,30.39,SE,145,1.0,2.0,67,0.00,,,0.00,VWS V14.01,2013-01-01 17:46:00,
2013-01-01 09:51:00,43.6,32.6,30.39,NNE,24,0.0,3.0,65,0.00,,,0.00,VWS V14.01,2013-01-01 17:51:00,
2013-01-01 09:56:00,43.6,33.4,30.39,SW,224,0.0,3.0,67,0.00,,,0.00,VWS V14.01,2013-01-01 17:56:00,
2013-01-01 10:01:00,43.6,33.4,30.38,SSW,211,0.0,1.0,67,0.00,,,0.00,VWS V14.01,2013-01-01 18:01:00,
2013-01-01 10:06:00,43.8,33.9,30.38,SE,136,2.0,2.0,68,0.00,,,0.00,VWS V14.01,2013-01-01 18:06:00,
2013-01-01 10:11:00,44.0,33.8,30.38,SW,219,1.0,2.0,67,0.00,,,0.00,VWS V14.01,2013-01-01 18:11:00,
2013-01-01 10:16:00,44.0,34.1,30.38,ENE,60,0.0,2.0,68,0.00,,,0.00,VWS V14.01,2013-01-01 18:16:00,
2013-01-01 10:21:00,43.8,34.3,30.39,WSW,242,0.0,2.0,69,0.00,,,0.00,VWS V14.01,2013-01-01 18:21:00,
2013-01-01 10:26:00,43.6,34.1,30.39,SW,235,0.0,4.0,69,0.00,,,0.00,VWS V14.01,2013-01-01 18:26:00,
2013-01-01 10:31:00,43.6,34.5,30.39,East,86,0.0,2.0,70,0.00,,,0.00,VWS V14.01,2013-01-01 18:31:00,
2013-01-01 10:36:00,43.6,34.8,30.39,WNW,294,0.0,2.0,71,0.00,,,0.00,VWS V14.01,2013-01-01 18:36:00,
2013-01-01 10:41:00,43.9,34.8,30.39,NNW,331,0.0,2.0,70,0.00,,,0.00,VWS V14.01,2013-01-01 18:41:00,
2013-01-01 10:46:00,44.3,34.0,30.39,WNW,288,1.0,5.0,67,0.00,,,0.00,VWS V14.01,2013-01-01 18:46:00,
2013-01-01 10:51:00,44.6,34.0,30.38,NNE,16,0.0,5.0,66,0.00,,,0.00,VWS V14.01,2013-01-01 18:51:00,
2013-01-01 10:56:00,45.1,34.0,30.39,ENE,57,3.0,6.0,65,0.00,,,0.00,VWS V14.01,2013-01-01 18:56:00,
2013-01-01 11:01:00,45.7,35.0,30.39,ENE,75,7.0,7.0,66,0.00,,,0.00,VWS V14.01,2013-01-01 19:01:00,
2013-01-01 11:06:00,46.1,34.2,30.39,ENE,58,1.0,7.0,63,0.00,,,0.00,VWS V14.01,2013-01-01 19:06:00,
2013-01-01 11:11:00,46.7,35.6,30.39,East,98,3.0,7.0,65,0.00,,,0.00,VWS V14.01,2013-01-01 19:11:00,
2013-01-01 11:16:00,47.3,35.4,30.39,ENE,60,0.0,7.0,63,0.00,,,0.00,VWS V14.01,2013-01-01 19:16:00,
2013-01-01 11:21:00,47.3,34.5,30.39,NNE,19,4.0,7.0,61,0.00,,,0.00,VWS V14.01,2013-01-01 19:21:00,
2013-01-01 11:26:00,47.1,35.2,30.38,NW,319,3.0,7.0,63,0.00,,,0.00,VWS V14.01,2013-01-01 19:26:00,
2013-01-01 11:31:00,46.6,34.3,30.39,East,87,3.0,6.0,62,0.00,,,0.00,VWS V14.01,2013-01-01 19:31:00,
2013-01-01 11:36:00,45.9,34.0,30.39,ENE,60,2.0,9.0,63,0.00,,,0.00,VWS V14.01,2013-01-01 19:36:00,
2013-01-01 11:41:00,45.5,34.0,30.38,ENE,62,1.0,9.0,64,0.00,,,0.00,VWS V14.01,2013-01-01 19:41:00,
2013-01-01 11:46:00,45.4,34.0,30.38,SSE,157,2.0,9.0,64,0.00,,,0.00,VWS V14.01,2013-01-01 19:46:00,
2013-01-01 11:51:00,45.6,34.5,30.38,NE,43,0.0,9.0,65,0.00,,,0.00,VWS V14.01,2013-01-01 19:51:00,
2013-01-01 11:56:00,46.5,35.0,30.37,SSE,166,1.0,9.0,64,0.00,,,0.00,VWS V14.01,2013-01-01 19:56:00,
2013-01-01 12:01:00,47.2,34.9,30.37,ENE,57,4.0,5.0,62,0.00,,,0.00,VWS V14.01,2013-01-01 20:01:00,
2013-01-01 12:06:00,47.3,34.1,30.37,East,79,1.0,8.0,60,0.00,,,0.00,VWS V14.01,2013-01-01 20:06:00,
2013-01-01 12:11:00,47.2,34.0,30.37,NW,309,1.0,8.0,60,0.00,,,0.00,VWS V14.01,2013-01-01 20:11:00,
2013-01-01 12:16:00,47.6,34.8,30.37,NE,48,1.0,8.0,61,0.00,,,0.00,VWS V14.01,2013-01-01 20:16:00,
2013-01-01 12:21:00,48.4,35.6,30.37,NE,53,1.0,8.0,61,0.00,,,0.00,VWS V14.01,2013-01-01 20:21:00,
2013-01-01 12:26:00,48.7,35.0,30.36,ESE,121,0.0,8.0,59,0.00,,,0.00,VWS V14.01,2013-01-01 20:26:00,
2013-01-01 12:31:00,49.0,35.3,30.36,ENE,73,2.0,2.0,59,0.00,,,0.00,VWS V14.01,2013-01-01 20:31:00,
2013-01-01 12:36:00,48.8,34.7,30.36,NE,51,3.0,6.0,58,0.00,,,0.00,VWS V14.01,2013-01-01 20:36:00,
2013-01-01 12:41:00,48.8,34.7,30.36,NE,52,3.0,6.0,58,0.00,,,0.00,VWS V14.01,2013-01-01 20:41:00,
2013-01-01 12:46:00,48.7,34.2,30.36,ENE,60,3.0,9.0,57,0.00,,,0.00,VWS V14.01,2013-01-01 20:46:00,
2013-01-01 12:51:00,48.9,34.8,30.35,ENE,77,1.0,9.0,58,0.00,,,0.00,VWS V14.01,2013-01-01 20:51:00,
2013-01-01 12:56:00,49.4,34.8,30.35,ENE,67,4.0,9.0,57,0.00,,,0.00,VWS V14.01,2013-01-01 20:56:00,
2013-01-01 13:01:00,49.5,34.5,30.35,NNE,25,1.0,4.0,56,0.00,,,0.00,VWS V14.01,2013-01-01 21:01:00,
2013-01-01 13:06:00,49.5,34.5,30.36,NNE,33,6.0,6.0,56,0.00,,,0.00,VWS V14.01,2013-01-01 21:06:00,
2013-01-01 13:11:00,49.6,34.6,30.35,NE,52,4.0,7.0,56,0.00,,,0.00,VWS V14.01,2013-01-01 21:11:00,
2013-01-01 13:16:00,49.7,35.1,30.35,NNE,19,1.0,7.0,57,0.00,,,0.00,VWS V14.01,2013-01-01 21:16:00,
2013-01-01 13:21:00,49.9,35.3,30.35,SE,143,1.0,7.0,57,0.00,,,0.00,VWS V14.01,2013-01-01 21:21:00,
2013-01-01 13:26:00,50.2,34.7,30.35,WSW,246,0.0,7.0,55,0.00,,,0.00,VWS V14.01,2013-01-01 21:26:00,
2013-01-01 13:31:00,50.1,34.6,30.35,ENE,65,1.0,8.0,55,0.00,,,0.00,VWS V14.01,2013-01-01 21:31:00,
2013-01-01 13:36:00,50.4,35.3,30.35,NNE,22,2.0,8.0,56,0.00,,,0.00,VWS V14.01,2013-01-01 21:36:00,
2013-01-01 13:41:00,50.5,35.0,30.35,ENE,69,1.0,8.0,55,0.00,,,0.00,VWS V14.01,2013-01-01 21:41:00,
2013-01-01 13:46:00,50.8,35.2,30.35,NNE,31,0.0,8.0,55,0.00,,,0.00,VWS V14.01,2013-01-01 21:46:00,
2013-01-01 13:51:00,51.2,36.1,30.34,South,172,3.0,8.0,56,0.00,,,0.00,VWS V14.01,2013-01-01 21:51:00,
2013-01-01 13:56:00,51.4,35.8,30.34,East,82,1.0,8.0,55,0.00,,,0.00,VWS V14.01,2013-01-01 21:56:00,
2013-01-01 14:01:00,51.2,34.7,30.34,ENE,60,4.0,6.0,53,0.00,,,0.00,VWS V14.01,2013-01-01 22:01:00,
2013-01-01 14:06:00,50.9,34.9,30.34,South,191,1.0,6.0,54,0.00,,,0.00,VWS V14.01,2013-01-01 22:06:00,
2013-01-01 14:11:00,51.0,35.0,30.34,WNW,286,1.0,6.0,54,0.00,,,0.00,VWS V14.01,2013-01-01 22:11:00,
2013-01-01 14:16:00,51.2,35.6,30.34,ESE,103,2.0,6.0,55,0.00,,,0.00,VWS V14.01,2013-01-01 22:16:00,
2013-01-01 14:21:00,51.0,35.4,30.34,ENE,65,3.0,6.0,55,0.00,,,0.00,VWS V14.01,2013-01-01 22:21:00,
2013-01-01 14:26:00,51.0,35.0,30.34,East,86,2.0,6.0,54,0.00,,,0.00,VWS V14.01,2013-01-01 22:26:00,
2013-01-01 14:31:00,50.8,35.2,30.34,ENE,61,3.0,6.0,55,0.00,,,0.00,VWS V14.01,2013-01-01 22:31:00,
2013-01-01 14:36:00,50.8,35.7,30.34,ENE,60,2.0,6.0,56,0.00,,,0.00,VWS V14.01,2013-01-01 22:36:00,
2013-01-01 14:41:00,51.0,35.9,30.34,NE,48,1.0,6.0,56,0.00,,,0.00,VWS V14.01,2013-01-01 22:41:00,
2013-01-01 14:46:00,51.2,36.1,30.34,ESE,110,1.0,6.0,56,0.00,,,0.00,VWS V14.01,2013-01-01 22:46:00,
2013-01-01 14:51:00,50.8,35.7,30.34,NNE,20,2.0,8.0,56,0.00,,,0.00,VWS V14.01,2013-01-01 22:51:00,
2013-01-01 14:56:00,50.9,35.8,30.34,ENE,60,1.0,8.0,56,0.00,,,0.00,VWS V14.01,2013-01-01 22:56:00,
2013-01-01 15:01:00,50.8,35.7,30.33,NE,48,1.0,4.0,56,0.00,,,0.00,VWS V14.01,2013-01-01 23:01:00,
2013-01-01 15:06:00,50.9,35.8,30.33,NNE,26,1.0,7.0,56,0.00,,,0.00,VWS V14.01,2013-01-01 23:06:00,
2013-01-01 15:11:00,51.0,35.4,30.33,SE,127,3.0,7.0,55,0.00,,,0.00,VWS V14.01,2013-01-01 23:11:00,
2013-01-01 15:16:00,50.7,35.1,30.34,ENE,75,2.0,7.0,55,0.00,,,0.00,VWS V14.01,2013-01-01 23:16:00,
2013-01-01 15:21:00,50.8,35.7,30.34,ENE,70,7.0,7.0,56,0.00,,,0.00,VWS V14.01,2013-01-01 23:21:00,
2013-01-01 15:26:00,50.7,35.6,30.34,NE,54,1.0,7.0,56,0.00,,,0.00,VWS V14.01,2013-01-01 23:26:00,
2013-01-01 15:31:00,50.6,35.0,30.33,ENE,72,1.0,4.0,55,0.00,,,0.00,VWS V14.01,2013-01-01 23:31:00,
2013-01-01 15:36:00,50.6,35.5,30.34,NE,43,0.0,5.0,56,0.00,,,0.00,VWS V14.01,2013-01-01 23:36:00,
2013-01-01 15:41:00,50.7,35.6,30.34,ENE,58,2.0,5.0,56,0.00,,,0.00,VWS V14.01,2013-01-01 23:41:00,
2013-01-01 15:46:00,50.5,34.5,30.34,East,89,1.0,5.0,54,0.00,,,0.00,VWS V14.01,2013-01-01 23:46:00,
2013-01-01 15:51:00,50.5,35.4,30.34,WNW,284,0.0,5.0,56,0.00,,,0.00,VWS V14.01,2013-01-01 23:51:00,
2013-01-01 15:56:00,50.5,34.0,30.33,NE,46,2.0,6.0,53,0.00,,,0.00,VWS V14.01,2013-01-01 23:56:00,
2013-01-01 16:01:00,50.1,33.7,30.33,ENE,71,2.0,2.0,53,0.00,,,0.00,VWS V14.01,2013-01-02 00:01:00,
2013-01-01 16:06:00,49.8,33.8,30.33,East,91,0.0,5.0,54,0.00,,,0.00,VWS V14.01,2013-01-02 00:06:00,
2013-01-01 16:11:00,49.7,33.8,30.33,NNE,27,0.0,5.0,54,0.00,,,0.00,VWS V14.01,2013-01-02 00:11:00,
2013-01-01 16:16:00,49.5,34.0,30.33,NE,39,2.0,5.0,55,0.00,,,0.00,VWS V14.01,2013-01-02 00:16:00,
2013-01-01 16:21:00,49.2,33.7,30.33,NE,56,0.0,5.0,55,0.00,,,0.00,VWS V14.01,2013-01-02 00:21:00,
2013-01-01 16:26:00,48.8,33.8,30.33,NE,49,0.0,5.0,56,0.00,,,0.00,VWS V14.01,2013-01-02 00:26:00,
2013-01-01 16:31:00,48.3,34.2,30.33,ENE,75,0.0,1.0,58,0.00,,,0.00,VWS V14.01,2013-01-02 00:31:00,
2013-01-01 16:36:00,47.9,34.7,30.33,North,6,0.0,2.0,60,0.00,,,0.00,VWS V14.01,2013-01-02 00:36:00,
2013-01-01 16:41:00,47.4,34.6,30.32,ESE,122,0.0,2.0,61,0.00,,,0.00,VWS V14.01,2013-01-02 00:41:00,
2013-01-01 16:46:00,46.9,33.8,30.32,SE,130,0.0,2.0,60,0.00,,,0.00,VWS V14.01,2013-01-02 00:46:00,
2013-01-01 16:51:00,46.5,33.4,30.32,SSW,211,0.0,2.0,60,0.00,,,0.00,VWS V14.01,2013-01-02 00:51:00,
2013-01-01 16:56:00,46.0,33.3,30.31,SSW,211,0.0,2.0,61,0.00,,,0.00,VWS V14.01,2013-01-02 00:56:00,
2013-01-01 17:01:00,45.6,32.9,30.31,SE,143,0.0,1.0,61,0.00,,,0.00,VWS V14.01,2013-01-02 01:01:00,
2013-01-01 17:06:00,45.2,33.8,30.31,East,87,0.0,1.0,64,0.00,,,0.00,VWS V14.01,2013-01-02 01:06:00,
2013-01-01 17:11:00,44.7,34.0,30.31,WNW,297,0.0,1.0,66,0.00,,,0.00,VWS V14.01,2013-01-02 01:11:00,
2013-01-01 17:16:00,44.1,33.9,30.31,WNW,298,0.0,1.0,67,0.00,,,0.00,VWS V14.01,2013-01-02 01:16:00,
2013-01-01 17:21:00,43.7,34.6,30.31,WNW,294,0.0,1.0,70,0.00,,,0.00,VWS V14.01,2013-01-02 01:21:00,
2013-01-01 17:26:00,43.0,33.9,30.31,WNW,293,0.0,1.0,70,0.00,,,0.00,VWS V14.01,2013-01-02 01:26:00,
2013-01-01 17:31:00,42.3,33.2,30.31,WNW,293,0.0,0.0,70,0.00,,,0.00,VWS V14.01,2013-01-02 01:31:00,
2013-01-01 17:36:00,41.8,33.1,30.31,WNW,294,0.0,0.0,71,0.00,,,0.00,VWS V14.01,2013-01-02 01:36:00,
2013-01-01 17:41:00,41.5,32.8,30.32,WNW,294,0.0,0.0,71,0.00,,,0.00,VWS V14.01,2013-01-02 01:41:00,
2013-01-01 17:46:00,41.1,32.8,30.32,WNW,293,0.0,0.0,72,0.00,,,0.00,VWS V14.01,2013-01-02 01:46:00,
2013-01-01 17:51:00,40.8,32.8,30.32,WNW,294,0.0,0.0,73,0.00,,,0.00,VWS V14.01,2013-01-02 01:51:00,
2013-01-01 17:56:00,40.5,32.5,30.32,WNW,293,0.0,0.0,73,0.00,,,0.00,VWS V14.01,2013-01-02 01:56:00,
2013-01-01 18:01:00,40.1,32.5,30.32,WNW,293,0.0,0.0,74,0.00,,,0.00,VWS V14.01,2013-01-02 02:01:00,
2013-01-01 18:06:00,39.8,32.9,30.32,WNW,293,0.0,0.0,76,0.00,,,0.00,VWS V14.01,2013-01-02 02:06:00,
2013-01-01 18:11:00,39.3,32.4,30.32,WNW,293,0.0,0.0,76,0.00,,,0.00,VWS V14.01,2013-01-02 02:11:00,
2013-01-01 18:16:00,39.0,32.7,30.32,WNW,294,0.0,0.0,78,0.00,,,0.00,VWS V14.01,2013-01-02 02:16:00,
2013-01-01 18:21:00,38.7,32.4,30.32,WNW,294,0.0,0.0,78,0.00,,,0.00,VWS V14.01,2013-01-02 02:21:00,
2013-01-01 18:26:00,38.3,32.0,30.33,WNW,293,0.0,0.0,78,0.00,,,0.00,VWS V14.01,2013-01-02 02:26:00,
2013-01-01 18:31:00,38.0,32.4,30.33,WNW,293,0.0,0.0,80,0.00,,,0.00,VWS V14.01,2013-01-02 02:31:00,
2013-01-01 18:36:00,37.7,32.1,30.33,WNW,286,0.0,0.0,80,0.00,,,0.00,VWS V14.01,2013-01-02 02:36:00,
2013-01-01 18:41:00,37.5,32.2,30.33,WNW,287,0.0,0.0,81,0.00,,,0.00,VWS V14.01,2013-01-02 02:41:00,
2013-01-01 18:46:00,37.3,32.3,30.33,WNW,287,0.0,0.0,82,0.00,,,0.00,VWS V14.01,2013-01-02 02:46:00,
2013-01-01 18:51:00,37.3,32.0,30.33,WNW,287,0.0,0.0,81,0.00,,,0.00,VWS V14.01,2013-01-02 02:51:00,
2013-01-01 18:56:00,37.3,32.0,30.33,WSW,253,0.0,1.0,81,0.00,,,0.00,VWS V14.01,2013-01-02 02:56:00,
2013-01-01 19:01:00,37.3,31.7,30.33,SE,124,0.0,1.0,80,0.00,,,0.00,VWS V14.01,2013-01-02 03:01:00,
2013-01-01 19:06:00,37.2,31.6,30.33,SE,127,1.0,1.0,80,0.00,,,0.00,VWS V14.01,2013-01-02 03:06:00,
2013-01-01 19:11:00,37.3,31.4,30.33,SE,127,0.0,1.0,79,0.00,,,0.00,VWS V14.01,2013-01-02 03:11:00,
2013-01-01 19:16:00,37.2,31.3,30.33,SE,127,0.0,1.0,79,0.00,,,0.00,VWS V14.01,2013-01-02 03:16:00,
2013-01-01 19:21:00,37.5,31.6,30.33,ESE,108,0.0,2.0,79,0.00,,,0.00,VWS V14.01,2013-01-02 03:21:00,
2013-01-01 19:26:00,37.6,31.7,30.33,SE,143,0.0,2.0,79,0.00,,,0.00,VWS V14.01,2013-01-02 03:26:00,
2013-01-01 19:31:00,37.7,31.8,30.33,ESE,112,0.0,2.0,79,0.00,,,0.00,VWS V14.01,2013-01-02 03:31:00,
2013-01-01 19:36:00,38.1,31.9,30.33,NE,53,1.0,6.0,78,0.00,,,0.00,VWS V14.01,2013-01-02 03:36:00,
2013-01-01 19:41:00,38.6,32.0,30.33,ESE,103,0.0,6.0,77,0.00,,,0.00,VWS V14.01,2013-01-02 03:41:00,
2013-01-01 19:46:00,38.6,31.7,30.33,ESE,108,0.0,6.0,76,0.00,,,0.00,VWS V14.01,2013-01-02 03:46:00,
2013-01-01 19:51:00,38.5,31.6,30.33,ESE,113,0.0,6.0,76,0.00,,,0.00,VWS V14.01,2013-01-02 03:51:00,
2013-01-01 19:56:00,38.3,31.4,30.33,ESE,113,0.0,6.0,76,0.00,,,0.00,VWS V14.01,2013-01-02 03:56:00,
2013-01-01 20:01:00,38.1,31.2,30.33,East,94,0.0,1.0,76,0.00,,,0.00,VWS V14.01,2013-01-02 04:01:00,
2013-01-01 20:06:00,38.0,31.1,30.33,East,95,0.0,1.0,76,0.00,,,0.00,VWS V14.01,2013-01-02 04:06:00,
2013-01-01 20:11:00,37.7,30.8,30.34,East,94,0.0,1.0,76,0.00,,,0.00,VWS V14.01,2013-01-02 04:11:00,
2013-01-01 20:16:00,37.4,30.9,30.34,South,187,0.0,1.0,77,0.00,,,0.00,VWS V14.01,2013-01-02 04:16:00,
2013-01-01 20:21:00,37.1,30.6,30.34,South,187,0.0,1.0,77,0.00,,,0.00,VWS V14.01,2013-01-02 04:21:00,
2013-01-01 20:26:00,36.8,30.9,30.34,South,187,0.0,1.0,79,0.00,,,0.00,VWS V14.01,2013-01-02 04:26:00,
2013-01-01 20:31:00,36.7,30.8,30.34,South,188,0.0,0.0,79,0.00,,,0.00,VWS V14.01,2013-01-02 04:31:00,
2013-01-01 20:36:00,36.5,30.9,30.34,South,187,0.0,0.0,80,0.00,,,0.00,VWS V14.01,2013-01-02 04:36:00,
2013-01-01 20:41:00,36.1,30.5,30.34,South,187,0.0,0.0,80,0.00,,,0.00,VWS V14.01,2013-01-02 04:41:00,
2013-01-01 20:46:00,35.7,30.5,30.34,South,187,0.0,0.0,81,0.00,,,0.00,VWS V14.01,2013-01-02 04:46:00,
2013-01-01 20:51:00,35.4,30.5,30.34,South,187,0.0,0.0,82,0.00,,,0.00,VWS V14.01,2013-01-02 04:51:00,
2013-01-01 20:56:00,35.1,30.5,30.34,South,187,0.0,0.0,83,0.00,,,0.00,VWS V14.01,2013-01-02 04:56:00,
2013-01-01 21:00:00,35.0,30.4,30.34,South,187,0.0,0.0,83,0.00,,,0.00,VWS V14.01,2013-01-02 05:00:00,
2013-01-01 21:01:00,34.9,30.3,30.34,South,187,0.0,0.0,83,0.00,,,0.00,VWS V14.01,2013-01-02 05:01:00,
2013-01-01 21:06:00,34.6,30.3,30.35,South,187,0.0,0.0,84,0.00,,,0.00,VWS V14.01,2013-01-02 05:06:00,
2013-01-01 21:11:00,34.7,30.4,30.35,South,187,0.0,0.0,84,0.00,,,0.00,VWS V14.01,2013-01-02 05:11:00,
2013-01-01 21:16:00,34.6,30.3,30.35,South,187,0.0,0.0,84,0.00,,,0.00,VWS V14.01,2013-01-02 05:16:00,
2013-01-01 21:21:00,34.5,30.2,30.35,South,187,0.0,0.0,84,0.00,,,0.00,VWS V14.01,2013-01-02 05:21:00,
2013-01-01 21:26:00,34.4,29.8,30.35,South,187,0.0,0.0,83,0.00,,,0.00,VWS V14.01,2013-01-02 05:26:00,
2013-01-01 21:31:00,34.5,29.9,30.35,SE,139,0.0,1.0,83,0.00,,,0.00,VWS V14.01,2013-01-02 05:31:00,
2013-01-01 21:36:00,34.5,29.9,30.35,SE,132,0.0,1.0,83,0.00,,,0.00,VWS V14.01,2013-01-02 05:36:00,
2013-01-01 21:41:00,34.5,29.9,30.35,SE,133,0.0,1.0,83,0.00,,,0.00,VWS V14.01,2013-01-02 05:41:00,
2013-01-01 21:46:00,34.5,29.9,30.35,SE,132,0.0,1.0,83,0.00,,,0.00,VWS V14.01,2013-01-02 05:46:00,
2013-01-01 21:51:00,34.6,30.0,30.35,SE,133,0.0,1.0,83,0.00,,,0.00,VWS V14.01,2013-01-02 05:51:00,
2013-01-01 21:56:00,34.6,30.0,30.35,SE,133,0.0,1.0,83,0.00,,,0.00,VWS V14.01,2013-01-02 05:56:00,
2013-01-01 22:01:00,34.7,29.8,30.35,SE,132,0.0,0.0,82,0.00,,,0.00,VWS V14.01,2013-01-02 06:01:00,
2013-01-01 22:06:00,34.7,29.8,30.35,SE,132,0.0,0.0,82,0.00,,,0.00,VWS V14.01,2013-01-02 06:06:00,
2013-01-01 22:11:00,34.7,29.8,30.35,SE,132,0.0,0.0,82,0.00,,,0.00,VWS V14.01,2013-01-02 06:11:00,
2013-01-01 22:16:00,34.6,29.7,30.35,SE,132,0.0,0.0,82,0.00,,,0.00,VWS V14.01,2013-01-02 06:16:00,
2013-01-01 22:21:00,34.4,29.2,30.35,ESE,116,0.0,1.0,81,0.00,,,0.00,VWS V14.01,2013-01-02 06:21:00,
2013-01-01 22:26:00,34.5,29.3,30.35,SE,146,0.0,1.0,81,0.00,,,0.00,VWS V14.01,2013-01-02 06:26:00,
2013-01-01 22:31:00,34.5,29.3,30.35,SSE,147,0.0,0.0,81,0.00,,,0.00,VWS V14.01,2013-01-02 06:31:00,
2013-01-01 22:36:00,34.3,29.1,30.35,SSE,147,0.0,0.0,81,0.00,,,0.00,VWS V14.01,2013-01-02 06:36:00,
2013-01-01 22:41:00,34.1,29.2,30.35,SSE,147,0.0,0.0,82,0.00,,,0.00,VWS V14.01,2013-01-02 06:41:00,
2013-01-01 22:46:00,34.0,29.1,30.35,SSE,147,0.0,0.0,82,0.00,,,0.00,VWS V14.01,2013-01-02 06:46:00,
2013-01-01 22:51:00,34.0,29.1,30.35,SE,142,0.0,0.0,82,0.00,,,0.00,VWS V14.01,2013-01-02 06:51:00,
2013-01-01 22:56:00,34.1,29.2,30.35,SE,143,0.0,0.0,82,0.00,,,0.00,VWS V14.01,2013-01-02 06:56:00,
2013-01-01 23:01:00,34.0,29.1,30.35,SE,143,0.0,0.0,82,0.00,,,0.00,VWS V14.01,2013-01-02 07:01:00,
2013-01-01 23:06:00,33.7,28.8,30.35,SE,143,0.0,0.0,82,0.00,,,0.00,VWS V14.01,2013-01-02 07:06:00,
2013-01-01 23:11:00,33.6,28.7,30.35,SSE,147,0.0,0.0,82,0.00,,,0.00,VWS V14.01,2013-01-02 07:11:00,
2013-01-01 23:16:00,33.5,28.9,30.35,SE,129,0.0,0.0,83,0.00,,,0.00,VWS V14.01,2013-01-02 07:16:00,
2013-01-01 23:21:00,33.3,28.4,30.35,SE,139,0.0,1.0,82,0.00,,,0.00,VWS V14.01,2013-01-02 07:21:00,
2013-01-01 23:26:00,33.4,28.5,30.35,SE,139,0.0,1.0,82,0.00,,,0.00,VWS V14.01,2013-01-02 07:26:00,
2013-01-01 23:31:00,33.2,28.3,30.35,SE,139,0.0,0.0,82,0.00,,,0.00,VWS V14.01,2013-01-02 07:31:00,
2013-01-01 23:36:00,33.1,28.5,30.35,SE,139,0.0,0.0,83,0.00,,,0.00,VWS V14.01,2013-01-02 07:36:00,
2013-01-01 23:41:00,33.2,28.6,30.35,SE,139,0.0,0.0,83,0.00,,,0.00,VWS V14.01,2013-01-02 07:41:00,
2013-01-01 23:46:00,33.1,28.5,30.35,SE,139,0.0,0.0,83,0.00,,,0.00,VWS V14.01,2013-01-02 07:46:00,
2013-01-01 23:51:00,33.1,28.5,30.35,SE,139,0.0,0.0,83,0.00,,,0.00,VWS V14.01,2013-01-02 07:51:00,
2013-01-01 23:56:00,33.1,28.5,30.35,SE,139,0.0,1.0,83,0.00,,,0.00,VWS V14.01,2013-01-02 07:56:00,